sensor_id;sensor_type;location;lat;lon;timestamp;pressure;altitude;pressure_sealevel;temperature;humidity
46942;BME280;32676;52.630;4.896;2023-06-10T00:01:22;101035.78;;;18.99;63.70
46942;BME280;32676;52.630;4.896;2023-06-10T00:03:49;101036.75;;;18.98;63.38
46942;BME280;32676;52.630;4.896;2023-06-10T00:06:17;101026.28;;;18.95;62.94
46942;BME280;32676;52.630;4.896;2023-06-10T00:08:43;101017.53;;;18.93;62.82
46942;BME280;32676;52.630;4.896;2023-06-10T00:11:12;101035.00;;;18.97;62.43
46942;BME280;32676;52.630;4.896;2023-06-10T00:13:39;101025.44;;;18.94;62.29
46942;BME280;32676;52.630;4.896;2023-06-10T00:16:07;101022.09;;;18.91;61.98
46942;BME280;32676;52.630;4.896;2023-06-10T00:18:33;101040.34;;;18.97;61.93
46942;BME280;32676;52.630;4.896;2023-06-10T00:21:02;101024.78;;;18.91;61.39
46942;BME280;32676;52.630;4.896;2023-06-10T00:23:30;101031.59;;;18.95;61.24
46942;BME280;32676;52.630;4.896;2023-06-10T00:25:57;101038.66;;;18.96;61.17
46942;BME280;32676;52.630;4.896;2023-06-10T00:28:24;101033.50;;;18.93;60.75
46942;BME280;32676;52.630;4.896;2023-06-10T00:30:51;101035.00;;;18.97;60.65
46942;BME280;32676;52.630;4.896;2023-06-10T00:33:19;101051.88;;;18.97;60.73
46942;BME280;32676;52.630;4.896;2023-06-10T00:35:46;101046.56;;;18.97;60.64
46942;BME280;32676;52.630;4.896;2023-06-10T00:38:13;101043.97;;;18.96;60.71
46942;BME280;32676;52.630;4.896;2023-06-10T00:40:40;101049.31;;;18.96;60.79
46942;BME280;32676;52.630;4.896;2023-06-10T00:43:07;101049.31;;;18.96;60.66
46942;BME280;32676;52.630;4.896;2023-06-10T00:45:33;101047.59;;;18.95;60.51
46942;BME280;32676;52.630;4.896;2023-06-10T00:48:00;101045.66;;;18.97;59.63
46942;BME280;32676;52.630;4.896;2023-06-10T00:50:29;101075.53;;;19.02;59.24
46942;BME280;32676;52.630;4.896;2023-06-10T00:52:56;101092.09;;;19.07;58.58
46942;BME280;32676;52.630;4.896;2023-06-10T00:55:23;101126.31;;;19.13;58.22
46942;BME280;32676;52.630;4.896;2023-06-10T00:57:50;101145.72;;;19.15;57.91
46942;BME280;32676;52.630;4.896;2023-06-10T01:00:17;101156.84;;;19.22;57.60
46942;BME280;32676;52.630;4.896;2023-06-10T01:02:44;101182.47;;;19.25;57.16
46942;BME280;32676;52.630;4.896;2023-06-10T01:05:11;101192.72;;;19.31;57.13
46942;BME280;32676;52.630;4.896;2023-06-10T01:07:43;101215.53;;;19.35;56.77
46942;BME280;32676;52.630;4.896;2023-06-10T01:10:20;101217.28;;;19.36;57.03
46942;BME280;32676;52.630;4.896;2023-06-10T01:12:54;101220.78;;;19.36;56.94
46942;BME280;32676;52.630;4.896;2023-06-10T01:15:22;101236.69;;;19.38;56.90
46942;BME280;32676;52.630;4.896;2023-06-10T01:17:54;101226.03;;;19.38;57.09
46942;BME280;32676;52.630;4.896;2023-06-10T01:20:20;101238.38;;;19.39;57.41
46942;BME280;32676;52.630;4.896;2023-06-10T01:22:49;101218.22;;;19.35;57.84
46942;BME280;32676;52.630;4.896;2023-06-10T01:25:15;101211.19;;;19.34;57.71
46942;BME280;32676;52.630;4.896;2023-06-10T01:27:44;101196.31;;;19.30;57.95
46942;BME280;32676;52.630;4.896;2023-06-10T01:30:15;101175.41;;;19.24;58.11
46942;BME280;32676;52.630;4.896;2023-06-10T01:32:45;101143.84;;;19.17;58.28
46942;BME280;32676;52.630;4.896;2023-06-10T01:35:14;101123.78;;;19.12;58.57
46942;BME280;32676;52.630;4.896;2023-06-10T01:37:45;101093.03;;;19.06;58.79
46942;BME280;32676;52.630;4.896;2023-06-10T01:40:14;101087.91;;;19.03;59.03
46942;BME280;32676;52.630;4.896;2023-06-10T01:42:41;101072.13;;;19.00;59.32
46942;BME280;32676;52.630;4.896;2023-06-10T01:45:08;101053.88;;;18.94;59.35
46942;BME280;32676;52.630;4.896;2023-06-10T01:47:35;101044.34;;;18.90;59.41
46942;BME280;32676;52.630;4.896;2023-06-10T01:50:01;101032.84;;;18.89;59.63
46942;BME280;32676;52.630;4.896;2023-06-10T01:52:28;101012.81;;;18.84;59.54
46942;BME280;32676;52.630;4.896;2023-06-10T01:54:55;100985.69;;;18.77;59.80
46942;BME280;32676;52.630;4.896;2023-06-10T01:57:22;100969.03;;;18.73;60.00
46942;BME280;32676;52.630;4.896;2023-06-10T01:59:49;100951.56;;;18.69;60.05
46942;BME280;32676;52.630;4.896;2023-06-10T02:02:15;100929.72;;;18.64;60.14
46942;BME280;32676;52.630;4.896;2023-06-10T02:04:42;100921.94;;;18.61;60.16
46942;BME280;32676;52.630;4.896;2023-06-10T02:07:08;100921.94;;;18.61;60.39
46942;BME280;32676;52.630;4.896;2023-06-10T02:09:35;100919.38;;;18.59;60.14
46942;BME280;32676;52.630;4.896;2023-06-10T02:12:02;100909.78;;;18.57;60.32
46942;BME280;32676;52.630;4.896;2023-06-10T02:14:32;100890.78;;;18.49;60.45
46942;BME280;32676;52.630;4.896;2023-06-10T02:16:59;100897.63;;;18.53;60.52
46942;BME280;32676;52.630;4.896;2023-06-10T02:19:25;100899.34;;;18.54;60.54
46942;BME280;32676;52.630;4.896;2023-06-10T02:21:52;100897.63;;;18.53;60.57
46942;BME280;32676;52.630;4.896;2023-06-10T02:24:19;100887.38;;;18.47;60.57
46942;BME280;32676;52.630;4.896;2023-06-10T02:26:46;100891.44;;;18.52;60.80
46942;BME280;32676;52.630;4.896;2023-06-10T02:29:13;100890.56;;;18.52;60.71
46942;BME280;32676;52.630;4.896;2023-06-10T02:31:41;100895.06;;;18.51;60.81
46942;BME280;32676;52.630;4.896;2023-06-10T02:34:07;100901.22;;;18.52;60.73
46942;BME280;32676;52.630;4.896;2023-06-10T02:36:34;100892.47;;;18.50;60.92
46942;BME280;32676;52.630;4.896;2023-06-10T02:39:01;100875.78;;;18.48;61.18
46942;BME280;32676;52.630;4.896;2023-06-10T02:41:28;100876.84;;;18.45;61.49
46942;BME280;32676;52.630;4.896;2023-06-10T02:43:54;100871.59;;;18.44;61.66
46942;BME280;32676;52.630;4.896;2023-06-10T02:46:21;100868.94;;;18.44;62.00
46942;BME280;32676;52.630;4.896;2023-06-10T02:48:48;100857.56;;;18.41;62.17
46942;BME280;32676;52.630;4.896;2023-06-10T02:51:17;100846.25;;;18.38;62.24
46942;BME280;32676;52.630;4.896;2023-06-10T02:53:43;100836.66;;;18.35;62.42
46942;BME280;32676;52.630;4.896;2023-06-10T02:56:10;100834.97;;;18.34;62.89
46942;BME280;32676;52.630;4.896;2023-06-10T02:58:37;100836.88;;;18.32;63.12
46942;BME280;32676;52.630;4.896;2023-06-10T03:01:04;100815.97;;;18.26;63.18
46942;BME280;32676;52.630;4.896;2023-06-10T03:03:31;100804.56;;;18.24;63.11
46942;BME280;32676;52.630;4.896;2023-06-10T03:06:00;100798.41;;;18.23;63.23
46942;BME280;32676;52.630;4.896;2023-06-10T03:08:27;100798.50;;;18.22;63.25
46942;BME280;32676;52.630;4.896;2023-06-10T03:10:54;100798.50;;;18.22;63.49
46942;BME280;32676;52.630;4.896;2023-06-10T03:13:21;100786.38;;;18.18;63.37
46942;BME280;32676;52.630;4.896;2023-06-10T03:15:47;100781.06;;;18.18;63.51
46942;BME280;32676;52.630;4.896;2023-06-10T03:18:14;100763.59;;;18.14;63.98
46942;BME280;32676;52.630;4.896;2023-06-10T03:20:40;100759.41;;;18.10;64.14
46942;BME280;32676;52.630;4.896;2023-06-10T03:23:09;100729.72;;;18.03;64.42
46942;BME280;32676;52.630;4.896;2023-06-10T03:25:35;100718.22;;;18.02;64.87
46942;BME280;32676;52.630;4.896;2023-06-10T03:28:02;100700.94;;;17.95;65.17
46942;BME280;32676;52.630;4.896;2023-06-10T03:30:28;100691.38;;;17.93;65.31
46942;BME280;32676;52.630;4.896;2023-06-10T03:32:55;100694.88;;;17.93;65.60
46942;BME280;32676;52.630;4.896;2023-06-10T03:35:21;100700.19;;;17.93;65.58
46942;BME280;32676;52.630;4.896;2023-06-10T03:37:48;100696.69;;;17.93;65.45
46942;BME280;32676;52.630;4.896;2023-06-10T03:40:16;100694.13;;;17.91;65.46
46942;BME280;32676;52.630;4.896;2023-06-10T03:42:42;100696.69;;;17.93;65.55
46942;BME280;32676;52.630;4.896;2023-06-10T03:45:10;100709.91;;;17.94;65.69
46942;BME280;32676;52.630;4.896;2023-06-10T03:47:37;100725.75;;;17.96;65.49
46942;BME280;32676;52.630;4.896;2023-06-10T03:50:06;100726.59;;;17.96;65.40
46942;BME280;32676;52.630;4.896;2023-06-10T03:52:33;100741.38;;;18.00;65.44
46942;BME280;32676;52.630;4.896;2023-06-10T03:54:59;100748.44;;;18.01;65.36
46942;BME280;32676;52.630;4.896;2023-06-10T03:57:27;100772.91;;;18.07;65.44
46942;BME280;32676;52.630;4.896;2023-06-10T03:59:54;100797.38;;;18.12;65.27
46942;BME280;32676;52.630;4.896;2023-06-10T04:02:21;100796.53;;;18.11;65.36
46942;BME280;32676;52.630;4.896;2023-06-10T04:04:48;100799.09;;;18.13;65.45
46942;BME280;32676;52.630;4.896;2023-06-10T04:07:16;100808.81;;;18.14;65.56
46942;BME280;32676;52.630;4.896;2023-06-10T04:09:44;100811.47;;;18.14;65.79
46942;BME280;32676;52.630;4.896;2023-06-10T04:12:11;100811.47;;;18.14;65.86
46942;BME280;32676;52.630;4.896;2023-06-10T04:14:40;100834.25;;;18.18;65.98
46942;BME280;32676;52.630;4.896;2023-06-10T04:17:08;100842.97;;;18.20;65.99
46942;BME280;32676;52.630;4.896;2023-06-10T04:19:35;100857.88;;;18.22;65.91
46942;BME280;32676;52.630;4.896;2023-06-10T04:22:02;100883.25;;;18.28;65.59
46942;BME280;32676;52.630;4.896;2023-06-10T04:24:29;100916.47;;;18.35;66.06
46942;BME280;32676;52.630;4.896;2023-06-10T04:26:55;100953.16;;;18.45;65.96
46942;BME280;32676;52.630;4.896;2023-06-10T04:29:22;100997.69;;;18.55;65.84
46942;BME280;32676;52.630;4.896;2023-06-10T04:31:50;101054.63;;;18.67;65.72
46942;BME280;32676;52.630;4.896;2023-06-10T04:34:17;101091.50;;;18.73;65.59
46942;BME280;32676;52.630;4.896;2023-06-10T04:36:43;101138.72;;;18.86;65.23
46942;BME280;32676;52.630;4.896;2023-06-10T04:39:10;101170.09;;;18.95;65.09
46942;BME280;32676;52.630;4.896;2023-06-10T04:41:36;101194.81;;;18.97;65.17
46942;BME280;32676;52.630;4.896;2023-06-10T04:44:03;101224.50;;;19.05;65.06
46942;BME280;32676;52.630;4.896;2023-06-10T04:46:30;101249.06;;;19.10;65.00
46942;BME280;32676;52.630;4.896;2023-06-10T04:48:58;101266.56;;;19.14;64.75
46942;BME280;32676;52.630;4.896;2023-06-10T04:51:24;101285.78;;;19.20;64.69
46942;BME280;32676;52.630;4.896;2023-06-10T04:53:51;101322.72;;;19.26;64.33
46942;BME280;32676;52.630;4.896;2023-06-10T04:56:17;101340.22;;;19.30;63.84
46942;BME280;32676;52.630;4.896;2023-06-10T04:58:44;101375.44;;;19.35;63.76
46942;BME280;32676;52.630;4.896;2023-06-10T05:01:11;101392.97;;;19.39;63.45
46942;BME280;32676;52.630;4.896;2023-06-10T05:03:37;101419.25;;;19.45;63.00
46942;BME280;32676;52.630;4.896;2023-06-10T05:06:05;101443.63;;;19.53;62.58
46942;BME280;32676;52.630;4.896;2023-06-10T05:08:31;101476.13;;;19.60;62.58
46942;BME280;32676;52.630;4.896;2023-06-10T05:10:58;101515.66;;;19.68;61.95
46942;BME280;32676;52.630;4.896;2023-06-10T05:13:24;101538.38;;;19.75;61.69
46942;BME280;32676;52.630;4.896;2023-06-10T05:15:51;101554.19;;;19.78;61.65
46942;BME280;32676;52.630;4.896;2023-06-10T05:18:17;101573.47;;;19.83;61.40
46942;BME280;32676;52.630;4.896;2023-06-10T05:20:44;101617.28;;;19.93;61.28
46942;BME280;32676;52.630;4.896;2023-06-10T05:23:13;101654.28;;;20.00;60.99
46942;BME280;32676;52.630;4.896;2023-06-10T05:25:39;101672.69;;;20.04;60.84
46942;BME280;32676;52.630;4.896;2023-06-10T05:28:06;101689.38;;;20.08;60.86
46942;BME280;32676;52.630;4.896;2023-06-10T05:30:35;101699.88;;;20.11;60.82
46942;BME280;32676;52.630;4.896;2023-06-10T05:33:03;101715.72;;;20.14;60.64
46942;BME280;32676;52.630;4.896;2023-06-10T05:35:29;101745.63;;;20.19;60.37
46942;BME280;32676;52.630;4.896;2023-06-10T05:37:56;101783.34;;;20.29;60.51
46942;BME280;32676;52.630;4.896;2023-06-10T05:40:24;101800.06;;;20.32;60.18
46942;BME280;32676;52.630;4.896;2023-06-10T05:42:50;101815.91;;;20.36;60.19
46942;BME280;32676;52.630;4.896;2023-06-10T05:45:17;101813.13;;;20.37;60.39
46942;BME280;32676;52.630;4.896;2023-06-10T05:47:43;101856.19;;;20.47;60.68
46942;BME280;32676;52.630;4.896;2023-06-10T05:50:10;101887.84;;;20.53;60.15
46942;BME280;32676;52.630;4.896;2023-06-10T05:52:36;101900.06;;;20.57;59.90
46942;BME280;32676;52.630;4.896;2023-06-10T05:55:06;101916.81;;;20.61;59.73
46942;BME280;32676;52.630;4.896;2023-06-10T05:57:34;101924.81;;;20.61;59.73
46942;BME280;32676;52.630;4.896;2023-06-10T06:00:00;101937.94;;;20.65;60.07
46942;BME280;32676;52.630;4.896;2023-06-10T06:02:27;101953.88;;;20.67;59.74
46942;BME280;32676;52.630;4.896;2023-06-10T06:04:53;101971.44;;;20.71;59.79
46942;BME280;32676;52.630;4.896;2023-06-10T06:07:20;101995.03;;;20.79;60.10
46942;BME280;32676;52.630;4.896;2023-06-10T06:09:46;102016.25;;;20.82;59.46
46942;BME280;32676;52.630;4.896;2023-06-10T06:12:13;102020.63;;;20.83;59.10
46942;BME280;32676;52.630;4.896;2023-06-10T06:14:42;102044.34;;;20.89;59.25
46942;BME280;32676;52.630;4.896;2023-06-10T06:17:10;102056.56;;;20.93;59.04
46942;BME280;32676;52.630;4.896;2023-06-10T06:19:36;102111.25;;;21.03;59.38
46942;BME280;32676;52.630;4.896;2023-06-10T06:22:03;102132.28;;;21.09;59.28
46942;BME280;32676;52.630;4.896;2023-06-10T06:24:30;102167.47;;;21.18;58.73
46942;BME280;32676;52.630;4.896;2023-06-10T06:26:57;102211.44;;;21.28;58.62
46942;BME280;32676;52.630;4.896;2023-06-10T06:29:23;102246.81;;;21.33;58.48
46942;BME280;32676;52.630;4.896;2023-06-10T06:31:51;102259.94;;;21.38;57.59
46942;BME280;32676;52.630;4.896;2023-06-10T06:34:18;102308.31;;;21.51;57.40
46942;BME280;32676;52.630;4.896;2023-06-10T06:36:45;102350.59;;;21.60;57.55
46942;BME280;32676;52.630;4.896;2023-06-10T06:39:11;102371.66;;;21.66;57.10
46942;BME280;32676;52.630;4.896;2023-06-10T06:41:38;102402.56;;;21.72;56.99
46942;BME280;32676;52.630;4.896;2023-06-10T06:44:04;102434.28;;;21.79;56.87
46942;BME280;32676;52.630;4.896;2023-06-10T06:46:31;102463.38;;;21.85;56.20
46942;BME280;32676;52.630;4.896;2023-06-10T06:48:59;102502.09;;;21.96;56.54
46942;BME280;32676;52.630;4.896;2023-06-10T06:51:25;102528.53;;;22.02;55.57
46942;BME280;32676;52.630;4.896;2023-06-10T06:53:52;102604.41;;;22.18;55.44
46942;BME280;32676;52.630;4.896;2023-06-10T06:56:22;102682.88;;;22.38;55.24
46942;BME280;32676;52.630;4.896;2023-06-10T06:58:48;102744.63;;;22.52;54.55
46942;BME280;32676;52.630;4.896;2023-06-10T07:01:15;102818.78;;;22.69;54.64
46942;BME280;32676;52.630;4.896;2023-06-10T07:03:41;102878.84;;;22.83;54.30
46942;BME280;32676;52.630;4.896;2023-06-10T07:06:09;102908.72;;;22.92;53.28
46942;BME280;32676;52.630;4.896;2023-06-10T07:08:35;102980.38;;;23.08;53.43
46942;BME280;32676;52.630;4.896;2023-06-10T07:11:02;103013.97;;;23.15;52.96
46942;BME280;32676;52.630;4.896;2023-06-10T07:13:28;103000.63;;;23.13;52.46
46942;BME280;32676;52.630;4.896;2023-06-10T07:15:55;103040.47;;;23.21;51.99
46942;BME280;32676;52.630;4.896;2023-06-10T07:18:21;103095.28;;;23.34;52.34
46942;BME280;32676;52.630;4.896;2023-06-10T07:20:48;103118.16;;;23.42;51.60
46942;BME280;32676;52.630;4.896;2023-06-10T07:23:16;103163.25;;;23.52;50.99
46942;BME280;32676;52.630;4.896;2023-06-10T07:25:42;103221.53;;;23.68;51.45
46942;BME280;32676;52.630;4.896;2023-06-10T07:28:09;103289.72;;;23.83;52.48
46942;BME280;32676;52.630;4.896;2023-06-10T07:30:35;103334.00;;;23.93;51.13
46942;BME280;32676;52.630;4.896;2023-06-10T07:33:02;103373.03;;;24.00;50.51
46942;BME280;32676;52.630;4.896;2023-06-10T07:35:31;103411.00;;;24.11;50.48
46942;BME280;32676;52.630;4.896;2023-06-10T07:37:57;103442.00;;;24.19;50.17
46942;BME280;32676;52.630;4.896;2023-06-10T07:40:26;103478.31;;;24.27;50.37
46942;BME280;32676;52.630;4.896;2023-06-10T07:42:52;103517.22;;;24.38;50.15
46942;BME280;32676;52.630;4.896;2023-06-10T07:45:19;103562.38;;;24.48;50.51
46942;BME280;32676;52.630;4.896;2023-06-10T07:47:46;103554.41;;;24.47;49.50
46942;BME280;32676;52.630;4.896;2023-06-10T07:50:12;103529.56;;;24.42;49.14
46942;BME280;32676;52.630;4.896;2023-06-10T07:52:39;103564.03;;;24.52;49.80
46942;BME280;32676;52.630;4.896;2023-06-10T07:55:06;103593.22;;;24.60;50.58
46942;BME280;32676;52.630;4.896;2023-06-10T07:57:34;103652.69;;;24.73;50.33
46942;BME280;32676;52.630;4.896;2023-06-10T08:00:02;103679.25;;;24.79;49.38
46942;BME280;32676;52.630;4.896;2023-06-10T08:02:31;103703.19;;;24.85;49.51
46942;BME280;32676;52.630;4.896;2023-06-10T08:04:57;103734.09;;;24.96;49.77
46942;BME280;32676;52.630;4.896;2023-06-10T08:07:24;103763.41;;;25.02;49.37
46942;BME280;32676;52.630;4.896;2023-06-10T08:09:50;103748.19;;;25.01;48.41
46942;BME280;32676;52.630;4.896;2023-06-10T08:12:17;103760.56;;;25.05;48.19
46942;BME280;32676;52.630;4.896;2023-06-10T08:14:45;103752.56;;;25.03;48.04
46942;BME280;32676;52.630;4.896;2023-06-10T08:17:11;103777.28;;;25.12;48.11
46942;BME280;32676;52.630;4.896;2023-06-10T08:19:38;103789.66;;;25.16;47.85
46942;BME280;32676;52.630;4.896;2023-06-10T08:22:07;103808.28;;;25.20;47.54
46942;BME280;32676;52.630;4.896;2023-06-10T08:24:35;103862.44;;;25.33;47.62
46942;BME280;32676;52.630;4.896;2023-06-10T08:27:01;103951.31;;;25.52;48.15
46942;BME280;32676;52.630;4.896;2023-06-10T08:29:28;103998.28;;;25.65;47.59
46942;BME280;32676;52.630;4.896;2023-06-10T08:31:58;103987.50;;;25.65;46.89
46942;BME280;32676;52.630;4.896;2023-06-10T08:34:24;103996.38;;;25.67;46.72
46942;BME280;32676;52.630;4.896;2023-06-10T08:36:51;103992.72;;;25.68;46.62
46942;BME280;32676;52.630;4.896;2023-06-10T08:39:20;104010.53;;;25.73;46.02
46942;BME280;32676;52.630;4.896;2023-06-10T08:41:56;104028.16;;;25.80;46.00
46942;BME280;32676;52.630;4.896;2023-06-10T08:44:28;104016.72;;;25.75;44.78
46942;BME280;32676;52.630;4.896;2023-06-10T08:46:58;104024.50;;;25.81;45.03
46942;BME280;32676;52.630;4.896;2023-06-10T08:49:26;104061.69;;;25.93;45.36
46942;BME280;32676;52.630;4.896;2023-06-10T08:51:58;104116.75;;;26.07;45.75
46942;BME280;32676;52.630;4.896;2023-06-10T08:54:28;104120.25;;;26.09;45.12
46942;BME280;32676;52.630;4.896;2023-06-10T08:56:57;104155.84;;;26.17;45.32
46942;BME280;32676;52.630;4.896;2023-06-10T08:59:25;104150.38;;;26.18;44.47
46942;BME280;32676;52.630;4.896;2023-06-10T09:01:52;104158.34;;;26.21;43.96
46942;BME280;32676;52.630;4.896;2023-06-10T09:04:21;104164.47;;;26.25;44.45
46942;BME280;32676;52.630;4.896;2023-06-10T09:06:51;104182.25;;;26.29;44.04
46942;BME280;32676;52.630;4.896;2023-06-10T09:09:19;104165.09;;;26.30;43.97
46942;BME280;32676;52.630;4.896;2023-06-10T09:11:46;104160.66;;;26.29;43.90
46942;BME280;32676;52.630;4.896;2023-06-10T09:14:12;104179.25;;;26.35;44.18
46942;BME280;32676;52.630;4.896;2023-06-10T09:16:39;104185.44;;;26.37;43.58
46942;BME280;32676;52.630;4.896;2023-06-10T09:19:07;104221.84;;;26.48;43.05
46942;BME280;32676;52.630;4.896;2023-06-10T09:21:35;104215.50;;;26.49;43.04
46942;BME280;32676;52.630;4.896;2023-06-10T09:24:02;104243.91;;;26.56;43.73
46942;BME280;32676;52.630;4.896;2023-06-10T09:26:29;104266.19;;;26.61;43.07
46942;BME280;32676;52.630;4.896;2023-06-10T09:29:02;104311.50;;;26.73;43.53
46942;BME280;32676;52.630;4.896;2023-06-10T09:31:29;104325.66;;;26.78;43.19
46942;BME280;32676;52.630;4.896;2023-06-10T09:34:05;104323.78;;;26.80;42.62
46942;BME280;32676;52.630;4.896;2023-06-10T09:36:32;104304.09;;;26.78;42.16
46942;BME280;32676;52.630;4.896;2023-06-10T09:39:00;104272.88;;;26.73;42.02
46942;BME280;32676;52.630;4.896;2023-06-10T09:41:32;104303.03;;;26.81;43.29
46942;BME280;32676;52.630;4.896;2023-06-10T09:43:58;104305.69;;;26.83;43.01
46942;BME280;32676;52.630;4.896;2023-06-10T09:46:30;104288.69;;;26.80;42.32
46942;BME280;32676;52.630;4.896;2023-06-10T09:48:57;104297.53;;;26.84;42.57
46942;BME280;32676;52.630;4.896;2023-06-10T09:51:24;104267.97;;;26.81;42.33
46942;BME280;32676;52.630;4.896;2023-06-10T09:53:51;104291.97;;;26.87;42.27
46942;BME280;32676;52.630;4.896;2023-06-10T09:56:19;104305.25;;;26.92;41.83
46942;BME280;32676;52.630;4.896;2023-06-10T09:58:46;104323.88;;;26.98;41.30
46942;BME280;32676;52.630;4.896;2023-06-10T10:01:13;104319.41;;;26.97;41.48
46942;BME280;32676;52.630;4.896;2023-06-10T10:03:44;104307.69;;;26.98;41.45
46942;BME280;32676;52.630;4.896;2023-06-10T10:06:12;104294.31;;;26.95;40.77
46942;BME280;32676;52.630;4.896;2023-06-10T10:08:39;104291.47;;;26.98;41.29
46942;BME280;32676;52.630;4.896;2023-06-10T10:11:05;104296.72;;;27.01;41.43
46942;BME280;32676;52.630;4.896;2023-06-10T10:13:34;104288.63;;;27.01;41.47
46942;BME280;32676;52.630;4.896;2023-06-10T10:16:04;104315.34;;;27.07;41.54
46942;BME280;32676;52.630;4.896;2023-06-10T10:18:33;104319.63;;;27.11;41.61
46942;BME280;32676;52.630;4.896;2023-06-10T10:21:12;104364.97;;;27.24;41.74
46942;BME280;32676;52.630;4.896;2023-06-10T10:23:42;104374.69;;;27.28;42.30
46942;BME280;32676;52.630;4.896;2023-06-10T10:26:10;104393.47;;;27.31;41.72
46942;BME280;32676;52.630;4.896;2023-06-10T10:28:43;104400.47;;;27.35;41.45
46942;BME280;32676;52.630;4.896;2023-06-10T10:31:15;104415.50;;;27.41;40.70
46942;BME280;32676;52.630;4.896;2023-06-10T10:33:50;104410.97;;;27.41;40.44
46942;BME280;32676;52.630;4.896;2023-06-10T10:36:19;104409.22;;;27.40;40.89
46942;BME280;32676;52.630;4.896;2023-06-10T10:38:47;104432.13;;;27.50;41.67
46942;BME280;32676;52.630;4.896;2023-06-10T10:41:14;104449.97;;;27.54;41.98
46942;BME280;32676;52.630;4.896;2023-06-10T10:43:44;104422.16;;;27.52;40.46
46942;BME280;32676;52.630;4.896;2023-06-10T10:46:12;104416.75;;;27.52;40.96
46942;BME280;32676;52.630;4.896;2023-06-10T10:48:39;104408.78;;;27.49;40.21
46942;BME280;32676;52.630;4.896;2023-06-10T10:51:06;104431.69;;;27.60;40.16
46942;BME280;32676;52.630;4.896;2023-06-10T10:53:33;104446.84;;;27.64;40.92
46942;BME280;32676;52.630;4.896;2023-06-10T10:56:04;104461.94;;;27.68;40.70
46942;BME280;32676;52.630;4.896;2023-06-10T10:58:31;104465.44;;;27.70;40.27
46942;BME280;32676;52.630;4.896;2023-06-10T11:00:59;104457.25;;;27.71;40.02
46942;BME280;32676;52.630;4.896;2023-06-10T11:03:28;104438.41;;;27.70;39.42
46942;BME280;32676;52.630;4.896;2023-06-10T11:05:57;104419.75;;;27.65;39.91
46942;BME280;32676;52.630;4.896;2023-06-10T11:08:48;104458.72;;;27.79;40.27
46942;BME280;32676;52.630;4.896;2023-06-10T11:11:19;104488.06;;;27.86;40.91
46942;BME280;32676;52.630;4.896;2023-06-10T11:13:58;104516.59;;;27.93;39.61
46942;BME280;32676;52.630;4.896;2023-06-10T11:16:27;104532.53;;;28.00;39.32
46942;BME280;32676;52.630;4.896;2023-06-10T11:18:55;104571.69;;;28.10;41.07
46942;BME280;32676;52.630;4.896;2023-06-10T11:21:23;104575.19;;;28.12;39.42
46942;BME280;32676;52.630;4.896;2023-06-10T11:23:50;104566.16;;;28.13;39.33
46942;BME280;32676;52.630;4.896;2023-06-10T11:26:19;104583.91;;;28.19;38.58
46942;BME280;32676;52.630;4.896;2023-06-10T11:29:04;104589.25;;;28.20;37.92
46942;BME280;32676;52.630;4.896;2023-06-10T11:31:38;104588.22;;;28.23;38.05
46942;BME280;32676;52.630;4.896;2023-06-10T11:34:06;104567.59;;;28.20;37.85
46942;BME280;32676;52.630;4.896;2023-06-10T11:36:35;104539.75;;;28.18;38.30
46942;BME280;32676;52.630;4.896;2023-06-10T11:39:04;104507.59;;;28.12;37.96
46942;BME280;32676;52.630;4.896;2023-06-10T11:41:32;104501.25;;;28.13;38.08
46942;BME280;32676;52.630;4.896;2023-06-10T11:44:02;104550.19;;;28.26;39.48
46942;BME280;32676;52.630;4.896;2023-06-10T11:46:28;104551.06;;;28.26;38.48
46942;BME280;32676;52.630;4.896;2023-06-10T11:48:58;104578.63;;;28.34;38.10
46942;BME280;32676;52.630;4.896;2023-06-10T11:51:26;104570.53;;;28.34;38.45
46942;BME280;32676;52.630;4.896;2023-06-10T11:53:53;104587.38;;;28.40;39.24
46942;BME280;32676;52.630;4.896;2023-06-10T11:56:20;104618.44;;;28.50;39.47
46942;BME280;32676;52.630;4.896;2023-06-10T11:58:52;104653.16;;;28.61;38.47
46942;BME280;32676;52.630;4.896;2023-06-10T12:01:20;104685.16;;;28.70;39.26
46942;BME280;32676;52.630;4.896;2023-06-10T12:03:47;104714.56;;;28.78;39.78
46942;BME280;32676;52.630;4.896;2023-06-10T12:06:15;104723.53;;;28.80;38.79
46942;BME280;32676;52.630;4.896;2023-06-10T12:08:44;104705.50;;;28.79;39.82
46942;BME280;32676;52.630;4.896;2023-06-10T12:11:10;104689.41;;;28.76;40.65
46942;BME280;32676;52.630;4.896;2023-06-10T12:13:37;104714.28;;;28.84;41.68
46942;BME280;32676;52.630;4.896;2023-06-10T12:16:12;104714.13;;;28.87;41.53
46942;BME280;32676;52.630;4.896;2023-06-10T12:18:38;104723.06;;;28.89;40.87
46942;BME280;32676;52.630;4.896;2023-06-10T12:21:19;104696.28;;;28.83;39.48
46942;BME280;32676;52.630;4.896;2023-06-10T12:24:04;104664.81;;;28.80;40.39
46942;BME280;32676;52.630;4.896;2023-06-10T12:26:41;104644.19;;;28.78;39.24
46942;BME280;32676;52.630;4.896;2023-06-10T12:29:28;104628.91;;;28.77;39.12
46942;BME280;32676;52.630;4.896;2023-06-10T12:32:00;104610.09;;;28.74;40.03
46942;BME280;32676;52.630;4.896;2023-06-10T12:34:35;104583.19;;;28.70;41.03
46942;BME280;32676;52.630;4.896;2023-06-10T12:37:05;104564.41;;;28.67;40.82
46942;BME280;32676;52.630;4.896;2023-06-10T12:39:33;104539.31;;;28.64;41.43
46942;BME280;32676;52.630;4.896;2023-06-10T12:42:00;104513.38;;;28.60;40.88
46942;BME280;32676;52.630;4.896;2023-06-10T12:44:34;104478.41;;;28.55;40.00
46942;BME280;32676;52.630;4.896;2023-06-10T12:47:07;104457.84;;;28.51;41.01
46942;BME280;32676;52.630;4.896;2023-06-10T12:49:34;104459.59;;;28.52;40.66
46942;BME280;32676;52.630;4.896;2023-06-10T12:52:01;104484.47;;;28.60;41.28
46942;BME280;32676;52.630;4.896;2023-06-10T12:54:29;104477.38;;;28.58;40.43